BLOG

LUXURY FLIGHT

080-7560-1817

羽田空港本店: 所在地: 東京都大田区羽田空港3-3-2    セントレア店: 所在地: 愛知県常滑市セントレア1-1      HICityファイター店: 所在地: 東京都大田区羽田空港1-1-4
           第1旅客ターミナル5階                  FLIGHT OF DREAMS FLIGHT PARK                 HANEDA INNOVATION CITY ZONE-J 2-5
      営業時間: 10:00~20:00 定休日: 年中無休         営業時間: 10:00~20:00 定休日: 年中無休             営業時間: 10:00~20:00 定休日: 年中無休
      電話番号: 080-7560-1817                  電話番号: 080-4945-5666                     電話番号: 03-5579-7980

lv

BLOG

ph

BLOG

2020年12月1日12月1日より、家族や恋人さらにはマニアで楽しもうぜキャンペーン 開催します!!!

いつも当ブログをご覧いただき、誠にありがとうございます!!   11月末までのキャンペーンからの延長戦で、新たなるキャンペーンを開催させていただくことと致しました!!   今回のキャンペーンは、「ご家族や恋人でのワイワイコース」と「航空マニア向けのガチ...

2020年11月29日SURPRISE SCRAMBLE ~サプライズ スクランブル~

ファイター店よりこんにちわーーーーー   今日の羽田のメターは、 RJTT 290600Z 08005KT 050V110 9999 FEW030 BKN045 BKN130 12/04 Q1020 NOSIG RMK 1CU030 5SC045 7AC130 A3014...

2020年11月27日みなさま、大変お待たせいたしました〜!(ファイター店)

ファイター店より、こんばんわ!!!     みなさま、大変お待たせいたしました〜〜〜〜〜!!!!   ついに、、、、、、   ついに、、、、、、   ついに、、、、、、、   ...

2020年11月27日捉える力!!

中部よりこんばんはーーー!!   RJGG 270930Z 16007KT 9999 FEW030 BKN070 16/09 Q1016 NOSIG 11月も終わりに近づいて参り、日々さすがに寒さが強まって参りましたね。 みなさま、体調管理にはどうかお気をつけくださ...

2020年11月24日ノ〜〜〜プロブレム♪

中部よりこんばんはーーー   RJGG 240800Z 25007KT 9999 FEW030 16/05 Q1022 BECMG TL0900 30008KT お昼ごろは晴れやかでしたね! ついつい外に出て、伸び伸びストレッチをしてしまいました笑  ...

2020年11月20日真のカッコよさ!!

中部よりおはようございますっ!!   RJGG 200130Z 17009KT 9999 -SHRA FEW010 SCT070 BKN100 20/18 Q1010 TEMPO 4000 -SHRA BR 近ごろ、季節外れの暖かさですが、皆様いかがお過ごしでしょうか? ...

2020年11月19日日本の近海に敵機接近!スクランブル発進せよ!!

ファイター店よりこんにちわ!!!   本日の羽田のメターはRJTT 190630Z 21016KT 9999 FEW030 SCT070 23/17 Q1016 NOSIG RMK 1CU030 3AC070 A3001   現在気温は23度!!お昼ご飯を...

2020年11月16日エースパイロット ご搭乗!!

ファイター店より、おはようございまっす!   本日の羽田周辺のメターはといいますと RJTT 160100Z 36005KT 9999 FEW030 16/08 Q1023 NOSIG RJTT 160030Z 01007KT 9999 FEW030 16/08 Q1...

2020年11月13日ファイター店 三冠王 次なる挑戦は。。。

HIC店からこんばんわん!!!! 本日の天候は、RJTT 130530Z 10005KT 9999 FEW030 17/12 Q1021 NOSIG RMK 1CU030 A3016   風も穏やかで、気温も17度とそこまで低い感じにみえませんが、 時折吹く北風は強...

2020年11月11日二刀流?!二冠王?!

中部よりこんばんはー!!   RJGG 110800Z 31013KT 9999 FEW020 15/05 Q1028 NOSIG 最近の中部は、北風が強く寒うござんす。。。 子どもだった頃を思い出して、今朝誰もいない歩道を全力で突っ走ってみました!! ...

TOP